sensor_id;sensor_type;location;lat;lon;timestamp;pressure;altitude;pressure_sealevel;temperature;humidity
62103;BME280;48077;48.104;11.702;2022-10-31T00:00:41;95981.81;;;7.66;100.00
62103;BME280;48077;48.104;11.702;2022-10-31T00:03:04;95974.66;;;7.60;100.00
62103;BME280;48077;48.104;11.702;2022-10-31T00:05:28;95978.97;;;7.55;100.00
62103;BME280;48077;48.104;11.702;2022-10-31T00:07:52;95981.38;;;7.49;100.00
62103;BME280;48077;48.104;11.702;2022-10-31T00:10:16;95981.78;;;7.46;100.00
62103;BME280;48077;48.104;11.702;2022-10-31T00:12:39;95976.91;;;7.50;100.00
62103;BME280;48077;48.104;11.702;2022-10-31T00:15:02;95978.72;;;7.49;100.00
62103;BME280;48077;48.104;11.702;2022-10-31T00:17:26;95976.88;;;7.43;100.00
62103;BME280;48077;48.104;11.702;2022-10-31T00:19:49;95981.16;;;7.38;100.00
62103;BME280;48077;48.104;11.702;2022-10-31T00:22:13;95979.94;;;7.40;100.00
62103;BME280;48077;48.104;11.702;2022-10-31T00:24:36;95970.75;;;7.36;100.00
62103;BME280;48077;48.104;11.702;2022-10-31T00:26:59;95967.91;;;7.38;100.00
62103;BME280;48077;48.104;11.702;2022-10-31T00:29:23;95973.41;;;7.36;100.00
62103;BME280;48077;48.104;11.702;2022-10-31T00:31:46;95969.53;;;7.39;100.00
62103;BME280;48077;48.104;11.702;2022-10-31T00:34:09;95959.72;;;7.33;100.00
62103;BME280;48077;48.104;11.702;2022-10-31T00:36:33;95964.41;;;7.30;100.00
62103;BME280;48077;48.104;11.702;2022-10-31T00:38:57;95966.25;;;7.30;100.00
62103;BME280;48077;48.104;11.702;2022-10-31T00:41:21;95948.66;;;7.22;100.00
62103;BME280;48077;48.104;11.702;2022-10-31T00:43:44;95960.31;;;7.28;100.00
62103;BME280;48077;48.104;11.702;2022-10-31T00:46:08;95959.91;;;7.31;100.00
62103;BME280;48077;48.104;11.702;2022-10-31T00:48:32;95960.50;;;7.33;100.00
62103;BME280;48077;48.104;11.702;2022-10-31T00:50:56;95949.69;;;7.28;100.00
62103;BME280;48077;48.104;11.702;2022-10-31T00:53:19;95955.81;;;7.35;100.00
62103;BME280;48077;48.104;11.702;2022-10-31T00:55:42;95955.63;;;7.37;100.00
62103;BME280;48077;48.104;11.702;2022-10-31T00:58:06;95950.94;;;7.39;100.00
62103;BME280;48077;48.104;11.702;2022-10-31T01:00:29;95951.13;;;7.37;100.00
62103;BME280;48077;48.104;11.702;2022-10-31T01:02:53;95933.78;;;7.21;100.00
62103;BME280;48077;48.104;11.702;2022-10-31T01:05:16;95950.94;;;7.32;100.00
62103;BME280;48077;48.104;11.702;2022-10-31T01:07:40;95954.81;;;7.29;100.00
62103;BME280;48077;48.104;11.702;2022-10-31T01:10:05;95954.81;;;7.29;100.00
62103;BME280;48077;48.104;11.702;2022-10-31T01:12:28;95946.25;;;7.27;100.00
62103;BME280;48077;48.104;11.702;2022-10-31T01:14:52;95955.81;;;7.35;100.00
62103;BME280;48077;48.104;11.702;2022-10-31T01:17:15;95943.97;;;7.24;100.00
62103;BME280;48077;48.104;11.702;2022-10-31T01:19:38;95961.31;;;7.27;100.00
62103;BME280;48077;48.104;11.702;2022-10-31T01:22:02;95965.38;;;7.23;100.00
62103;BME280;48077;48.104;11.702;2022-10-31T01:24:25;95959.06;;;7.17;100.00
62103;BME280;48077;48.104;11.702;2022-10-31T01:26:48;95957.03;;;7.13;100.00
62103;BME280;48077;48.104;11.702;2022-10-31T01:29:12;95965.19;;;7.18;100.00
62103;BME280;48077;48.104;11.702;2022-10-31T01:31:37;95960.69;;;7.18;100.00
62103;BME280;48077;48.104;11.702;2022-10-31T01:34:02;95967.66;;;7.19;100.00
62103;BME280;48077;48.104;11.702;2022-10-31T01:36:30;95959.88;;;7.11;100.00
62103;BME280;48077;48.104;11.702;2022-10-31T01:38:58;95970.47;;;7.11;100.00
62103;BME280;48077;48.104;11.702;2022-10-31T01:41:24;95965.16;;;7.11;100.00
62103;BME280;48077;48.104;11.702;2022-10-31T01:43:54;95969.06;;;7.15;100.00
62103;BME280;48077;48.104;11.702;2022-10-31T01:46:22;95971.47;;;7.10;100.00
62103;BME280;48077;48.104;11.702;2022-10-31T01:48:47;95965.34;;;7.03;100.00
62103;BME280;48077;48.104;11.702;2022-10-31T01:51:12;95963.91;;;7.00;100.00
62103;BME280;48077;48.104;11.702;2022-10-31T01:53:36;95956.53;;;6.96;100.00
62103;BME280;48077;48.104;11.702;2022-10-31T01:56:00;95948.97;;;6.93;100.00
62103;BME280;48077;48.104;11.702;2022-10-31T01:58:25;95957.75;;;6.93;100.00
62103;BME280;48077;48.104;11.702;2022-10-31T02:00:56;95954.66;;;6.89;100.00
62103;BME280;48077;48.104;11.702;2022-10-31T02:03:22;95953.22;;;6.87;100.00
62103;BME280;48077;48.104;11.702;2022-10-31T02:05:46;95948.72;;;6.81;100.00
62103;BME280;48077;48.104;11.702;2022-10-31T02:08:21;95943.22;;;6.76;100.00
62103;BME280;48077;48.104;11.702;2022-10-31T02:10:46;95949.94;;;6.78;100.00
62103;BME280;48077;48.104;11.702;2022-10-31T02:13:10;95938.28;;;6.73;100.00
62103;BME280;48077;48.104;11.702;2022-10-31T02:15:38;95953.03;;;6.82;100.00
62103;BME280;48077;48.104;11.702;2022-10-31T02:18:03;95953.63;;;6.77;100.00
62103;BME280;48077;48.104;11.702;2022-10-31T02:20:37;95946.47;;;6.71;100.00
62103;BME280;48077;48.104;11.702;2022-10-31T02:36:44;95956.84;;;6.73;100.00
62103;BME280;48077;48.104;11.702;2022-10-31T02:44:33;95959.91;;;6.69;100.00
62103;BME280;48077;48.104;11.702;2022-10-31T02:47:08;95955.13;;;6.58;100.00
62103;BME280;48077;48.104;11.702;2022-10-31T02:49:42;95954.75;;;6.61;100.00
62103;BME280;48077;48.104;11.702;2022-10-31T02:52:14;95952.47;;;6.58;100.00
62103;BME280;48077;48.104;11.702;2022-10-31T02:54:39;95960.22;;;6.53;100.00
62103;BME280;48077;48.104;11.702;2022-10-31T02:57:06;95952.06;;;6.48;100.00
62103;BME280;48077;48.104;11.702;2022-10-31T02:59:32;95948.00;;;6.52;100.00
62103;BME280;48077;48.104;11.702;2022-10-31T03:07:30;95958.41;;;6.60;100.00
62103;BME280;48077;48.104;11.702;2022-10-31T03:13:02;95959.41;;;6.53;100.00
62103;BME280;48077;48.104;11.702;2022-10-31T03:15:30;95943.22;;;6.41;100.00
62103;BME280;48077;48.104;11.702;2022-10-31T03:18:04;95948.53;;;6.41;100.00
62103;BME280;48077;48.104;11.702;2022-10-31T03:20:50;95959.13;;;6.41;100.00
62103;BME280;48077;48.104;11.702;2022-10-31T03:23:16;95955.22;;;6.37;100.00
62103;BME280;48077;48.104;11.702;2022-10-31T03:25:41;95958.69;;;6.37;100.00
62103;BME280;48077;48.104;11.702;2022-10-31T03:28:07;95954.59;;;6.35;100.00
62103;BME280;48077;48.104;11.702;2022-10-31T03:30:38;95954.78;;;6.33;100.00
62103;BME280;48077;48.104;11.702;2022-10-31T03:33:06;95959.91;;;6.35;100.00
62103;BME280;48077;48.104;11.702;2022-10-31T03:35:33;95936.81;;;6.22;100.00
62103;BME280;48077;48.104;11.702;2022-10-31T03:37:59;95961.34;;;6.37;100.00
62103;BME280;48077;48.104;11.702;2022-10-31T03:40:24;95963.00;;;6.38;100.00
62103;BME280;48077;48.104;11.702;2022-10-31T03:42:57;95956.03;;;6.37;100.00
62103;BME280;48077;48.104;11.702;2022-10-31T03:45:28;95947.44;;;6.28;100.00
62103;BME280;48077;48.104;11.702;2022-10-31T03:47:53;95946.00;;;6.26;100.00
62103;BME280;48077;48.104;11.702;2022-10-31T03:50:18;95959.06;;;6.27;100.00
62103;BME280;48077;48.104;11.702;2022-10-31T03:52:46;95956.59;;;6.26;100.00
62103;BME280;48077;48.104;11.702;2022-10-31T03:55:26;95955.97;;;6.24;100.00
62103;BME280;48077;48.104;11.702;2022-10-31T03:58:12;95953.72;;;6.21;100.00
62103;BME280;48077;48.104;11.702;2022-10-31T04:00:42;95952.06;;;6.20;100.00
62103;BME280;48077;48.104;11.702;2022-10-31T04:03:10;95959.53;;;6.10;100.00
62103;BME280;48077;48.104;11.702;2022-10-31T04:05:35;95955.28;;;6.08;100.00
62103;BME280;48077;48.104;11.702;2022-10-31T04:08:03;95956.88;;;6.10;100.00
62103;BME280;48077;48.104;11.702;2022-10-31T04:10:28;95952.00;;;6.06;100.00
62103;BME280;48077;48.104;11.702;2022-10-31T04:12:57;95963.22;;;6.08;100.00
62103;BME280;48077;48.104;11.702;2022-10-31T04:15:22;95955.63;;;6.05;100.00
62103;BME280;48077;48.104;11.702;2022-10-31T04:17:47;95962.34;;;6.01;100.00
62103;BME280;48077;48.104;11.702;2022-10-31T04:20:16;95960.88;;;5.99;100.00
62103;BME280;48077;48.104;11.702;2022-10-31T04:22:39;95956.09;;;5.87;100.00
62103;BME280;48077;48.104;11.702;2022-10-31T04:25:02;95968.94;;;5.91;100.00
62103;BME280;48077;48.104;11.702;2022-10-31T04:27:27;95970.78;;;5.90;100.00
62103;BME280;48077;48.104;11.702;2022-10-31T04:29:50;95960.69;;;5.79;100.00
62103;BME280;48077;48.104;11.702;2022-10-31T04:32:13;95965.19;;;5.78;100.00
62103;BME280;48077;48.104;11.702;2022-10-31T04:34:37;95967.25;;;5.83;100.00
62103;BME280;48077;48.104;11.702;2022-10-31T04:37:02;95970.97;;;5.88;100.00
62103;BME280;48077;48.104;11.702;2022-10-31T04:39:26;95969.97;;;5.90;100.00
62103;BME280;48077;48.104;11.702;2022-10-31T04:41:49;95957.91;;;5.87;100.00
62103;BME280;48077;48.104;11.702;2022-10-31T04:44:13;95976.69;;;5.92;100.00
62103;BME280;48077;48.104;11.702;2022-10-31T04:46:36;95977.69;;;5.91;100.00
62103;BME280;48077;48.104;11.702;2022-10-31T04:48:59;95976.06;;;5.90;100.00
62103;BME280;48077;48.104;11.702;2022-10-31T04:51:23;95953.50;;;5.73;100.00
62103;BME280;48077;48.104;11.702;2022-10-31T04:53:46;95975.41;;;5.81;100.00
62103;BME280;48077;48.104;11.702;2022-10-31T04:56:09;95964.53;;;5.76;100.00
62103;BME280;48077;48.104;11.702;2022-10-31T04:58:33;95972.75;;;5.81;100.00
62103;BME280;48077;48.104;11.702;2022-10-31T05:00:56;95966.63;;;5.81;100.00
62103;BME280;48077;48.104;11.702;2022-10-31T05:03:19;95971.28;;;5.79;100.00
62103;BME280;48077;48.104;11.702;2022-10-31T05:05:43;95971.84;;;5.74;100.00
62103;BME280;48077;48.104;11.702;2022-10-31T05:08:06;95968.59;;;5.72;100.00
62103;BME280;48077;48.104;11.702;2022-10-31T05:10:30;95967.72;;;5.65;100.00
62103;BME280;48077;48.104;11.702;2022-10-31T05:12:56;95944.53;;;5.45;100.00
62103;BME280;48077;48.104;11.702;2022-10-31T05:15:21;95961.13;;;5.54;100.00
62103;BME280;48077;48.104;11.702;2022-10-31T05:17:45;95953.09;;;5.47;100.00
62103;BME280;48077;48.104;11.702;2022-10-31T05:20:10;95963.31;;;5.51;100.00
62103;BME280;48077;48.104;11.702;2022-10-31T05:22:34;95962.41;;;5.43;100.00
62103;BME280;48077;48.104;11.702;2022-10-31T05:24:57;95950.31;;;5.34;100.00
62103;BME280;48077;48.104;11.702;2022-10-31T05:27:21;95947.41;;;5.29;100.00
62103;BME280;48077;48.104;11.702;2022-10-31T05:29:44;95955.00;;;5.32;100.00
62103;BME280;48077;48.104;11.702;2022-10-31T05:32:08;95937.16;;;5.19;100.00
62103;BME280;48077;48.104;11.702;2022-10-31T05:34:31;95958.38;;;5.26;100.00
62103;BME280;48077;48.104;11.702;2022-10-31T05:36:54;95960.00;;;5.27;100.00
62103;BME280;48077;48.104;11.702;2022-10-31T05:39:18;95948.38;;;5.21;100.00
62103;BME280;48077;48.104;11.702;2022-10-31T05:41:41;95954.47;;;5.22;100.00
62103;BME280;48077;48.104;11.702;2022-10-31T05:44:04;95957.50;;;5.19;100.00
62103;BME280;48077;48.104;11.702;2022-10-31T05:46:28;95952.97;;;5.13;100.00
62103;BME280;48077;48.104;11.702;2022-10-31T05:48:51;95959.53;;;5.17;100.00
62103;BME280;48077;48.104;11.702;2022-10-31T05:51:14;95952.22;;;5.19;100.00
62103;BME280;48077;48.104;11.702;2022-10-31T05:53:38;95945.66;;;5.15;100.00
62103;BME280;48077;48.104;11.702;2022-10-31T05:56:01;95950.56;;;5.18;100.00
62103;BME280;48077;48.104;11.702;2022-10-31T05:58:24;95953.47;;;5.23;100.00
62103;BME280;48077;48.104;11.702;2022-10-31T06:00:48;95959.19;;;5.26;100.00
62103;BME280;48077;48.104;11.702;2022-10-31T06:03:11;95945.47;;;5.16;100.00
62103;BME280;48077;48.104;11.702;2022-10-31T06:05:34;95957.94;;;5.22;100.00
62103;BME280;48077;48.104;11.702;2022-10-31T06:07:58;95954.03;;;5.18;100.00
62103;BME280;48077;48.104;11.702;2022-10-31T06:10:22;95955.69;;;5.19;100.00
62103;BME280;48077;48.104;11.702;2022-10-31T06:12:45;95963.59;;;5.19;100.00
62103;BME280;48077;48.104;11.702;2022-10-31T06:15:09;95956.88;;;5.17;100.00
62103;BME280;48077;48.104;11.702;2022-10-31T06:17:33;95961.97;;;5.18;100.00
62103;BME280;48077;48.104;11.702;2022-10-31T06:19:57;95958.78;;;5.23;100.00
62103;BME280;48077;48.104;11.702;2022-10-31T06:22:20;95953.28;;;5.24;100.00
62103;BME280;48077;48.104;11.702;2022-10-31T06:24:44;95957.75;;;5.24;100.00
62103;BME280;48077;48.104;11.702;2022-10-31T06:27:07;95956.13;;;5.23;100.00
62103;BME280;48077;48.104;11.702;2022-10-31T06:29:31;95955.84;;;5.18;100.00
62103;BME280;48077;48.104;11.702;2022-10-31T06:31:54;95963.22;;;5.22;100.00
62103;BME280;48077;48.104;11.702;2022-10-31T06:34:17;95942.19;;;5.14;100.00
62103;BME280;48077;48.104;11.702;2022-10-31T06:36:41;95958.38;;;5.26;100.00
62103;BME280;48077;48.104;11.702;2022-10-31T06:39:04;95963.91;;;5.31;100.00
62103;BME280;48077;48.104;11.702;2022-10-31T06:41:28;95957.25;;;5.35;100.00
62103;BME280;48077;48.104;11.702;2022-10-31T06:43:51;95945.03;;;5.34;100.00
62103;BME280;48077;48.104;11.702;2022-10-31T06:46:14;95955.09;;;5.45;100.00
62103;BME280;48077;48.104;11.702;2022-10-31T06:48:40;95942.50;;;5.47;100.00
62103;BME280;48077;48.104;11.702;2022-10-31T06:51:03;95963.59;;;5.62;100.00
62103;BME280;48077;48.104;11.702;2022-10-31T06:53:27;95951.44;;;5.68;100.00
62103;BME280;48077;48.104;11.702;2022-10-31T06:55:52;95963.97;;;5.81;100.00
62103;BME280;48077;48.104;11.702;2022-10-31T06:58:16;95952.56;;;5.80;100.00
62103;BME280;48077;48.104;11.702;2022-10-31T07:00:39;95948.09;;;5.81;100.00
62103;BME280;48077;48.104;11.702;2022-10-31T07:03:05;95968.03;;;5.98;100.00
62103;BME280;48077;48.104;11.702;2022-10-31T07:05:30;95951.50;;;5.96;100.00
62103;BME280;48077;48.104;11.702;2022-10-31T07:07:58;95950.75;;;6.02;100.00
62103;BME280;48077;48.104;11.702;2022-10-31T07:10:25;95971.19;;;6.15;100.00
62103;BME280;48077;48.104;11.702;2022-10-31T07:12:56;95953.28;;;6.17;100.00
62103;BME280;48077;48.104;11.702;2022-10-31T07:15:20;95964.97;;;6.30;100.00
62103;BME280;48077;48.104;11.702;2022-10-31T07:17:43;95968.72;;;6.42;100.00
62103;BME280;48077;48.104;11.702;2022-10-31T07:20:10;95950.19;;;6.42;100.00
62103;BME280;48077;48.104;11.702;2022-10-31T07:22:35;95959.22;;;6.54;100.00
62103;BME280;48077;48.104;11.702;2022-10-31T07:24:58;95961.91;;;6.61;100.00
62103;BME280;48077;48.104;11.702;2022-10-31T07:27:22;95962.56;;;6.76;100.00
62103;BME280;48077;48.104;11.702;2022-10-31T07:29:45;95950.56;;;6.80;100.00
62103;BME280;48077;48.104;11.702;2022-10-31T07:32:08;95954.47;;;6.91;100.00
62103;BME280;48077;48.104;11.702;2022-10-31T07:34:32;95966.78;;;7.05;100.00
62103;BME280;48077;48.104;11.702;2022-10-31T07:36:55;95971.53;;;7.17;100.00
62103;BME280;48077;48.104;11.702;2022-10-31T07:39:18;95970.94;;;7.28;100.00
62103;BME280;48077;48.104;11.702;2022-10-31T07:41:42;95967.06;;;7.37;100.00
62103;BME280;48077;48.104;11.702;2022-10-31T07:44:05;95973.22;;;7.44;100.00
62103;BME280;48077;48.104;11.702;2022-10-31T07:46:28;95966.69;;;7.54;100.00
62103;BME280;48077;48.104;11.702;2022-10-31T07:48:52;95968.75;;;7.65;100.00
62103;BME280;48077;48.104;11.702;2022-10-31T07:51:15;95964.06;;;7.74;100.00
62103;BME280;48077;48.104;11.702;2022-10-31T07:53:38;95954.06;;;7.76;100.00
62103;BME280;48077;48.104;11.702;2022-10-31T07:56:02;95969.97;;;7.96;100.00
62103;BME280;48077;48.104;11.702;2022-10-31T07:58:25;95958.75;;;8.07;100.00
62103;BME280;48077;48.104;11.702;2022-10-31T08:00:48;95962.84;;;8.16;100.00
62103;BME280;48077;48.104;11.702;2022-10-31T08:03:14;95951.59;;;8.27;100.00
62103;BME280;48077;48.104;11.702;2022-10-31T08:05:38;95953.00;;;8.43;100.00
62103;BME280;48077;48.104;11.702;2022-10-31T08:08:04;95963.00;;;8.61;100.00
62103;BME280;48077;48.104;11.702;2022-10-31T08:10:28;95943.75;;;8.66;100.00
62103;BME280;48077;48.104;11.702;2022-10-31T08:12:55;95938.59;;;8.78;100.00
62103;BME280;48077;48.104;11.702;2022-10-31T08:15:19;95939.75;;;8.95;100.00
62103;BME280;48077;48.104;11.702;2022-10-31T08:17:42;95947.88;;;9.14;100.00
62103;BME280;48077;48.104;11.702;2022-10-31T08:20:06;95946.97;;;9.26;100.00
62103;BME280;48077;48.104;11.702;2022-10-31T08:22:29;95933.59;;;9.40;100.00
62103;BME280;48077;48.104;11.702;2022-10-31T08:24:53;95919.38;;;9.52;100.00
62103;BME280;48077;48.104;11.702;2022-10-31T08:27:16;95917.66;;;9.65;100.00
62103;BME280;48077;48.104;11.702;2022-10-31T08:29:40;95915.50;;;9.80;100.00
62103;BME280;48077;48.104;11.702;2022-10-31T08:32:03;95924.94;;;10.01;100.00
62103;BME280;48077;48.104;11.702;2022-10-31T08:34:26;95913.59;;;10.12;100.00
62103;BME280;48077;48.104;11.702;2022-10-31T08:36:50;95914.81;;;10.35;100.00
62103;BME280;48077;48.104;11.702;2022-10-31T08:39:13;95914.25;;;10.51;100.00
62103;BME280;48077;48.104;11.702;2022-10-31T08:41:36;95906.53;;;10.62;100.00
62103;BME280;48077;48.104;11.702;2022-10-31T08:44:00;95912.91;;;10.79;100.00
62103;BME280;48077;48.104;11.702;2022-10-31T08:46:23;95896.13;;;10.90;100.00
62103;BME280;48077;48.104;11.702;2022-10-31T08:48:47;95915.59;;;11.09;100.00
62103;BME280;48077;48.104;11.702;2022-10-31T08:51:11;95904.31;;;11.26;100.00
62103;BME280;48077;48.104;11.702;2022-10-31T08:53:34;95910.19;;;11.46;100.00
62103;BME280;48077;48.104;11.702;2022-10-31T08:55:58;95903.34;;;11.62;100.00
62103;BME280;48077;48.104;11.702;2022-10-31T08:58:21;95901.19;;;11.83;100.00
62103;BME280;48077;48.104;11.702;2022-10-31T09:00:47;95901.34;;;12.00;100.00
62103;BME280;48077;48.104;11.702;2022-10-31T09:03:25;95894.59;;;12.21;99.81
62103;BME280;48077;48.104;11.702;2022-10-31T09:05:49;95896.22;;;12.45;97.80
62103;BME280;48077;48.104;11.702;2022-10-31T09:08:13;95891.22;;;12.61;96.92
62103;BME280;48077;48.104;11.702;2022-10-31T09:10:37;95888.41;;;12.79;94.72
62103;BME280;48077;48.104;11.702;2022-10-31T09:13:05;95886.34;;;12.98;92.95
62103;BME280;48077;48.104;11.702;2022-10-31T09:15:34;95868.97;;;13.12;91.22
62103;BME280;48077;48.104;11.702;2022-10-31T09:17:58;95876.69;;;13.38;90.24
62103;BME280;48077;48.104;11.702;2022-10-31T09:20:23;95872.22;;;13.60;86.99
62103;BME280;48077;48.104;11.702;2022-10-31T09:22:47;95878.03;;;13.86;87.05
62103;BME280;48077;48.104;11.702;2022-10-31T09:25:10;95872.56;;;13.97;86.28
62103;BME280;48077;48.104;11.702;2022-10-31T09:27:36;95873.03;;;14.11;84.41
62103;BME280;48077;48.104;11.702;2022-10-31T09:30:00;95872.31;;;14.16;84.05
62103;BME280;48077;48.104;11.702;2022-10-31T09:32:23;95867.50;;;14.18;84.88
62103;BME280;48077;48.104;11.702;2022-10-31T09:34:47;95863.22;;;14.17;83.77
62103;BME280;48077;48.104;11.702;2022-10-31T09:37:10;95866.53;;;14.24;83.09
62103;BME280;48077;48.104;11.702;2022-10-31T09:39:33;95861.47;;;14.28;82.70
62103;BME280;48077;48.104;11.702;2022-10-31T09:50:29;95849.13;;;14.88;77.43
62103;BME280;48077;48.104;11.702;2022-10-31T09:52:54;95846.28;;;15.00;75.82
62103;BME280;48077;48.104;11.702;2022-10-31T09:55:39;95838.50;;;14.98;74.94
62103;BME280;48077;48.104;11.702;2022-10-31T09:58:04;95841.91;;;15.15;73.91
62103;BME280;48077;48.104;11.702;2022-10-31T10:00:28;95851.22;;;15.35;73.87
62103;BME280;48077;48.104;11.702;2022-10-31T10:03:10;95848.97;;;15.54;73.11
62103;BME280;48077;48.104;11.702;2022-10-31T10:08:09;95842.06;;;15.90;71.56
62103;BME280;48077;48.104;11.702;2022-10-31T10:10:48;95838.66;;;16.05;71.44
62103;BME280;48077;48.104;11.702;2022-10-31T10:16:36;95844.00;;;16.43;69.55
62103;BME280;48077;48.104;11.702;2022-10-31T10:24:23;95837.09;;;16.57;68.22
62103;BME280;48077;48.104;11.702;2022-10-31T10:32:30;95832.25;;;16.64;67.93
62103;BME280;48077;48.104;11.702;2022-10-31T10:37:38;95826.31;;;16.62;66.65
62103;BME280;48077;48.104;11.702;2022-10-31T10:40:11;95817.19;;;16.63;65.91
62103;BME280;48077;48.104;11.702;2022-10-31T10:42:37;95821.00;;;16.72;66.26
62103;BME280;48077;48.104;11.702;2022-10-31T10:45:19;95821.22;;;16.61;67.22
62103;BME280;48077;48.104;11.702;2022-10-31T10:48:10;95826.81;;;16.54;67.52
62103;BME280;48077;48.104;11.702;2022-10-31T10:50:41;95807.66;;;16.40;67.49
62103;BME280;48077;48.104;11.702;2022-10-31T10:53:21;95817.88;;;16.38;67.68
62103;BME280;48077;48.104;11.702;2022-10-31T10:56:16;95811.09;;;16.25;68.30
62103;BME280;48077;48.104;11.702;2022-10-31T10:58:41;95802.41;;;16.18;68.07
62103;BME280;48077;48.104;11.702;2022-10-31T11:01:11;95815.09;;;16.23;68.04
62103;BME280;48077;48.104;11.702;2022-10-31T11:03:35;95803.50;;;16.17;68.64
62103;BME280;48077;48.104;11.702;2022-10-31T11:05:59;95806.47;;;16.21;69.10
62103;BME280;48077;48.104;11.702;2022-10-31T11:08:33;95797.09;;;16.23;69.21
62103;BME280;48077;48.104;11.702;2022-10-31T11:11:28;95792.75;;;16.22;70.03
62103;BME280;48077;48.104;11.702;2022-10-31T11:14:03;95790.59;;;16.19;69.71
62103;BME280;48077;48.104;11.702;2022-10-31T11:18:50;95791.66;;;16.18;69.85
62103;BME280;48077;48.104;11.702;2022-10-31T11:21:28;95782.78;;;16.17;69.67
62103;BME280;48077;48.104;11.702;2022-10-31T11:24:13;95777.41;;;16.17;69.73
62103;BME280;48077;48.104;11.702;2022-10-31T11:26:38;95773.06;;;16.16;69.99
62103;BME280;48077;48.104;11.702;2022-10-31T11:29:04;95778.22;;;16.18;69.91
62103;BME280;48077;48.104;11.702;2022-10-31T11:31:28;95777.41;;;16.17;69.71
62103;BME280;48077;48.104;11.702;2022-10-31T11:33:58;95775.81;;;16.22;69.53
62103;BME280;48077;48.104;11.702;2022-10-31T11:36:25;95779.34;;;16.27;70.58
62103;BME280;48077;48.104;11.702;2022-10-31T11:38:49;95756.72;;;16.23;70.60
62103;BME280;48077;48.104;11.702;2022-10-31T11:41:18;95776.72;;;16.37;69.58
62103;BME280;48077;48.104;11.702;2022-10-31T11:44:13;95775.63;;;16.44;68.89
62103;BME280;48077;48.104;11.702;2022-10-31T11:46:44;95770.03;;;16.50;68.93
62103;BME280;48077;48.104;11.702;2022-10-31T11:51:59;95766.28;;;16.62;69.45
62103;BME280;48077;48.104;11.702;2022-10-31T11:54:28;95760.13;;;16.71;68.68
62103;BME280;48077;48.104;11.702;2022-10-31T11:56:52;95752.59;;;16.78;68.50
62103;BME280;48077;48.104;11.702;2022-10-31T11:59:30;95752.91;;;16.87;68.71
62103;BME280;48077;48.104;11.702;2022-10-31T12:01:56;95739.19;;;16.89;68.96
62103;BME280;48077;48.104;11.702;2022-10-31T12:04:27;95741.63;;;16.95;68.97
62103;BME280;48077;48.104;11.702;2022-10-31T12:06:54;95742.97;;;17.08;68.44
62103;BME280;48077;48.104;11.702;2022-10-31T12:09:22;95741.38;;;17.23;67.92
62103;BME280;48077;48.104;11.702;2022-10-31T12:12:09;95728.19;;;17.21;66.98
62103;BME280;48077;48.104;11.702;2022-10-31T12:17:21;95747.06;;;17.21;67.50
62103;BME280;48077;48.104;11.702;2022-10-31T12:31:19;95726.81;;;17.08;69.37
62103;BME280;48077;48.104;11.702;2022-10-31T12:34:12;95710.66;;;17.03;69.78
62103;BME280;48077;48.104;11.702;2022-10-31T12:36:59;95714.16;;;16.98;69.70
62103;BME280;48077;48.104;11.702;2022-10-31T12:50:08;95696.09;;;16.84;70.96
62103;BME280;48077;48.104;11.702;2022-10-31T12:52:56;95686.13;;;16.84;71.90
62103;BME280;48077;48.104;11.702;2022-10-31T12:58:32;95692.56;;;16.83;71.58
62103;BME280;48077;48.104;11.702;2022-10-31T13:01:24;95681.53;;;16.85;72.45
62103;BME280;48077;48.104;11.702;2022-10-31T13:03:54;95689.06;;;16.83;72.95
62103;BME280;48077;48.104;11.702;2022-10-31T13:06:29;95675.34;;;16.84;73.51
62103;BME280;48077;48.104;11.702;2022-10-31T13:08:59;95664.53;;;16.79;73.51
62103;BME280;48077;48.104;11.702;2022-10-31T13:11:44;95667.53;;;16.93;73.46
62103;BME280;48077;48.104;11.702;2022-10-31T13:14:26;95670.78;;;16.95;73.30
62103;BME280;48077;48.104;11.702;2022-10-31T13:16:51;95655.41;;;16.95;73.61
62103;BME280;48077;48.104;11.702;2022-10-31T13:19:27;95657.84;;;16.97;73.08
62103;BME280;48077;48.104;11.702;2022-10-31T13:22:10;95658.41;;;17.04;73.44
62103;BME280;48077;48.104;11.702;2022-10-31T13:24:58;95663.22;;;17.12;71.81
62103;BME280;48077;48.104;11.702;2022-10-31T13:27:30;95655.94;;;17.08;71.74
62103;BME280;48077;48.104;11.702;2022-10-31T13:32:44;95650.31;;;17.04;71.62
62103;BME280;48077;48.104;11.702;2022-10-31T13:35:39;95653.56;;;17.06;71.79
62103;BME280;48077;48.104;11.702;2022-10-31T13:43:35;95638.47;;;16.90;73.26
62103;BME280;48077;48.104;11.702;2022-10-31T13:46:24;95640.06;;;16.91;74.07
62103;BME280;48077;48.104;11.702;2022-10-31T13:48:48;95640.88;;;16.86;74.07
62103;BME280;48077;48.104;11.702;2022-10-31T13:51:11;95633.03;;;16.79;75.33
62103;BME280;48077;48.104;11.702;2022-10-31T13:53:56;95637.88;;;16.77;75.77
62103;BME280;48077;48.104;11.702;2022-10-31T13:56:40;95623.59;;;16.67;75.93
62103;BME280;48077;48.104;11.702;2022-10-31T14:01:33;95624.13;;;16.58;78.25
62103;BME280;48077;48.104;11.702;2022-10-31T14:04:24;95621.66;;;16.52;78.61
62103;BME280;48077;48.104;11.702;2022-10-31T14:06:59;95634.31;;;16.51;79.00
62103;BME280;48077;48.104;11.702;2022-10-31T14:09:34;95622.44;;;16.37;79.59
62103;BME280;48077;48.104;11.702;2022-10-31T14:12:02;95619.75;;;16.32;80.34
62103;BME280;48077;48.104;11.702;2022-10-31T14:14:31;95619.19;;;16.25;81.27
62103;BME280;48077;48.104;11.702;2022-10-31T14:16:57;95610.84;;;16.16;82.51
62103;BME280;48077;48.104;11.702;2022-10-31T14:19:21;95602.72;;;16.06;83.11
62103;BME280;48077;48.104;11.702;2022-10-31T14:21:46;95627.53;;;16.13;82.82
62103;BME280;48077;48.104;11.702;2022-10-31T14:26:57;95616.22;;;16.11;82.42
62103;BME280;48077;48.104;11.702;2022-10-31T14:29:24;95617.00;;;16.11;83.04
62103;BME280;48077;48.104;11.702;2022-10-31T14:34:35;95612.97;;;16.14;82.79